sensor_id;sensor_type;location;lat;lon;timestamp;P1;durP1;ratioP1;P2;durP2;ratioP2
3523;SDS011;1776;53.330;11.498;2022-09-03T00:00:13;1.60;;;1.00;;
3523;SDS011;1776;53.330;11.498;2022-09-03T00:02:42;1.30;;;1.10;;
3523;SDS011;1776;53.330;11.498;2022-09-03T00:05:22;2.47;;;1.10;;
3523;SDS011;1776;53.330;11.498;2022-09-03T00:10:24;6.03;;;1.33;;
3523;SDS011;1776;53.330;11.498;2022-09-03T00:12:55;1.30;;;1.20;;
3523;SDS011;1776;53.330;11.498;2022-09-03T00:15:24;2.10;;;1.10;;
3523;SDS011;1776;53.330;11.498;2022-09-03T00:17:52;3.33;;;0.70;;
3523;SDS011;1776;53.330;11.498;2022-09-03T00:20:24;1.17;;;0.90;;
3523;SDS011;1776;53.330;11.498;2022-09-03T00:22:56;2.70;;;1.00;;
3523;SDS011;1776;53.330;11.498;2022-09-03T00:28:13;1.80;;;0.80;;
3523;SDS011;1776;53.330;11.498;2022-09-03T00:30:50;1.30;;;0.90;;
3523;SDS011;1776;53.330;11.498;2022-09-03T00:33:25;3.13;;;1.10;;
3523;SDS011;1776;53.330;11.498;2022-09-03T00:36:11;1.70;;;1.00;;
3523;SDS011;1776;53.330;11.498;2022-09-03T00:38:42;1.17;;;1.03;;
3523;SDS011;1776;53.330;11.498;2022-09-03T00:43:56;1.23;;;1.03;;
3523;SDS011;1776;53.330;11.498;2022-09-03T00:49:41;2.80;;;0.80;;
3523;SDS011;1776;53.330;11.498;2022-09-03T00:55:08;3.33;;;1.00;;
3523;SDS011;1776;53.330;11.498;2022-09-03T01:00:38;1.10;;;1.00;;
3523;SDS011;1776;53.330;11.498;2022-09-03T01:10:58;1.53;;;1.07;;
3523;SDS011;1776;53.330;11.498;2022-09-03T01:13:43;1.40;;;0.90;;
3523;SDS011;1776;53.330;11.498;2022-09-03T01:27:17;1.30;;;0.90;;
3523;SDS011;1776;53.330;11.498;2022-09-03T01:29:59;1.87;;;0.97;;
3523;SDS011;1776;53.330;11.498;2022-09-03T01:32:35;3.60;;;1.10;;
3523;SDS011;1776;53.330;11.498;2022-09-03T01:35:16;1.00;;;0.90;;
3523;SDS011;1776;53.330;11.498;2022-09-03T01:46:21;2.27;;;1.10;;
3523;SDS011;1776;53.330;11.498;2022-09-03T01:51:25;2.20;;;1.13;;
3523;SDS011;1776;53.330;11.498;2022-09-03T02:00:00;2.53;;;0.90;;
3523;SDS011;1776;53.330;11.498;2022-09-03T02:02:37;0.77;;;0.77;;
3523;SDS011;1776;53.330;11.498;2022-09-03T02:05:12;1.70;;;0.93;;
3523;SDS011;1776;53.330;11.498;2022-09-03T02:07:42;3.20;;;1.13;;
3523;SDS011;1776;53.330;11.498;2022-09-03T02:10:10;2.60;;;1.00;;
3523;SDS011;1776;53.330;11.498;2022-09-03T02:12:38;2.77;;;1.20;;
3523;SDS011;1776;53.330;11.498;2022-09-03T02:15:12;1.30;;;1.07;;
3523;SDS011;1776;53.330;11.498;2022-09-03T02:17:41;2.17;;;1.10;;
3523;SDS011;1776;53.330;11.498;2022-09-03T02:20:10;3.90;;;1.20;;
3523;SDS011;1776;53.330;11.498;2022-09-03T02:22:40;2.20;;;0.90;;
3523;SDS011;1776;53.330;11.498;2022-09-03T02:25:06;2.13;;;1.00;;
3523;SDS011;1776;53.330;11.498;2022-09-03T02:27:32;3.00;;;1.40;;
3523;SDS011;1776;53.330;11.498;2022-09-03T02:29:57;6.40;;;1.00;;
3523;SDS011;1776;53.330;11.498;2022-09-03T02:32:23;1.10;;;0.77;;
3523;SDS011;1776;53.330;11.498;2022-09-03T02:34:49;1.77;;;0.80;;
3523;SDS011;1776;53.330;11.498;2022-09-03T02:37:16;1.37;;;1.07;;
3523;SDS011;1776;53.330;11.498;2022-09-03T02:39:42;1.60;;;1.10;;
3523;SDS011;1776;53.330;11.498;2022-09-03T02:42:08;1.73;;;1.03;;
3523;SDS011;1776;53.330;11.498;2022-09-03T02:44:37;1.50;;;1.10;;
3523;SDS011;1776;53.330;11.498;2022-09-03T02:47:07;1.43;;;1.30;;
3523;SDS011;1776;53.330;11.498;2022-09-03T02:49:32;1.47;;;1.13;;
3523;SDS011;1776;53.330;11.498;2022-09-03T02:51:58;1.10;;;0.87;;
3523;SDS011;1776;53.330;11.498;2022-09-03T02:54:26;2.10;;;1.20;;
3523;SDS011;1776;53.330;11.498;2022-09-03T02:56:52;1.23;;;0.93;;
3523;SDS011;1776;53.330;11.498;2022-09-03T02:59:18;1.87;;;1.00;;
3523;SDS011;1776;53.330;11.498;2022-09-03T03:01:43;2.10;;;1.00;;
3523;SDS011;1776;53.330;11.498;2022-09-03T03:04:09;2.10;;;1.20;;
3523;SDS011;1776;53.330;11.498;2022-09-03T03:06:34;1.53;;;0.83;;
3523;SDS011;1776;53.330;11.498;2022-09-03T03:08:59;2.23;;;1.00;;
3523;SDS011;1776;53.330;11.498;2022-09-03T03:11:28;1.83;;;1.10;;
3523;SDS011;1776;53.330;11.498;2022-09-03T03:13:54;4.53;;;1.10;;
3523;SDS011;1776;53.330;11.498;2022-09-03T03:16:19;1.30;;;1.10;;
3523;SDS011;1776;53.330;11.498;2022-09-03T03:18:45;2.97;;;1.30;;
3523;SDS011;1776;53.330;11.498;2022-09-03T03:21:11;0.80;;;0.70;;
3523;SDS011;1776;53.330;11.498;2022-09-03T03:23:39;1.30;;;1.20;;
3523;SDS011;1776;53.330;11.498;2022-09-03T03:26:05;1.10;;;1.00;;
3523;SDS011;1776;53.330;11.498;2022-09-03T03:28:32;1.00;;;0.90;;
3523;SDS011;1776;53.330;11.498;2022-09-03T03:31:04;3.43;;;1.10;;
3523;SDS011;1776;53.330;11.498;2022-09-03T03:33:36;1.60;;;0.90;;
3523;SDS011;1776;53.330;11.498;2022-09-03T03:36:04;1.13;;;0.97;;
3523;SDS011;1776;53.330;11.498;2022-09-03T03:38:30;1.40;;;1.23;;
3523;SDS011;1776;53.330;11.498;2022-09-03T03:40:56;0.80;;;0.80;;
3523;SDS011;1776;53.330;11.498;2022-09-03T03:43:22;1.77;;;1.10;;
3523;SDS011;1776;53.330;11.498;2022-09-03T03:45:56;1.37;;;0.80;;
3523;SDS011;1776;53.330;11.498;2022-09-03T03:48:23;1.23;;;1.10;;
3523;SDS011;1776;53.330;11.498;2022-09-03T03:50:48;2.63;;;1.03;;
3523;SDS011;1776;53.330;11.498;2022-09-03T03:53:14;2.40;;;1.10;;
3523;SDS011;1776;53.330;11.498;2022-09-03T03:55:39;1.60;;;1.17;;
3523;SDS011;1776;53.330;11.498;2022-09-03T03:58:05;1.10;;;0.90;;
3523;SDS011;1776;53.330;11.498;2022-09-03T04:00:31;1.73;;;1.00;;
3523;SDS011;1776;53.330;11.498;2022-09-03T04:02:58;1.77;;;0.90;;
3523;SDS011;1776;53.330;11.498;2022-09-03T04:05:23;1.73;;;0.90;;
3523;SDS011;1776;53.330;11.498;2022-09-03T04:07:48;1.23;;;1.07;;
3523;SDS011;1776;53.330;11.498;2022-09-03T04:10:14;1.87;;;1.00;;
3523;SDS011;1776;53.330;11.498;2022-09-03T04:12:39;4.90;;;1.40;;
3523;SDS011;1776;53.330;11.498;2022-09-03T04:15:04;3.73;;;1.27;;
3523;SDS011;1776;53.330;11.498;2022-09-03T04:17:30;1.43;;;1.33;;
3523;SDS011;1776;53.330;11.498;2022-09-03T04:19:56;2.03;;;1.13;;
3523;SDS011;1776;53.330;11.498;2022-09-03T04:22:21;1.50;;;1.10;;
3523;SDS011;1776;53.330;11.498;2022-09-03T04:24:46;1.83;;;1.20;;
3523;SDS011;1776;53.330;11.498;2022-09-03T04:27:12;2.27;;;1.10;;
3523;SDS011;1776;53.330;11.498;2022-09-03T04:29:37;2.47;;;1.00;;
3523;SDS011;1776;53.330;11.498;2022-09-03T04:32:02;1.90;;;1.03;;
3523;SDS011;1776;53.330;11.498;2022-09-03T04:34:46;4.17;;;1.10;;
3523;SDS011;1776;53.330;11.498;2022-09-03T04:37:11;5.07;;;1.20;;
3523;SDS011;1776;53.330;11.498;2022-09-03T04:39:37;1.30;;;1.20;;
3523;SDS011;1776;53.330;11.498;2022-09-03T04:42:02;1.77;;;1.10;;
3523;SDS011;1776;53.330;11.498;2022-09-03T04:44:27;5.07;;;0.90;;
3523;SDS011;1776;53.330;11.498;2022-09-03T04:46:53;1.30;;;1.20;;
3523;SDS011;1776;53.330;11.498;2022-09-03T04:49:18;1.70;;;0.90;;
3523;SDS011;1776;53.330;11.498;2022-09-03T04:51:44;1.70;;;1.30;;
3523;SDS011;1776;53.330;11.498;2022-09-03T04:54:09;1.80;;;0.93;;
3523;SDS011;1776;53.330;11.498;2022-09-03T04:56:35;1.63;;;1.23;;
3523;SDS011;1776;53.330;11.498;2022-09-03T04:59:04;1.00;;;0.90;;
3523;SDS011;1776;53.330;11.498;2022-09-03T05:01:32;2.17;;;1.43;;
3523;SDS011;1776;53.330;11.498;2022-09-03T05:03:59;2.23;;;1.47;;
3523;SDS011;1776;53.330;11.498;2022-09-03T05:06:26;3.13;;;1.57;;
3523;SDS011;1776;53.330;11.498;2022-09-03T05:08:52;2.53;;;1.10;;
3523;SDS011;1776;53.330;11.498;2022-09-03T05:11:19;0.80;;;0.80;;
3523;SDS011;1776;53.330;11.498;2022-09-03T05:13:48;1.90;;;1.23;;
3523;SDS011;1776;53.330;11.498;2022-09-03T05:16:15;1.27;;;1.13;;
3523;SDS011;1776;53.330;11.498;2022-09-03T05:18:42;1.93;;;1.03;;
3523;SDS011;1776;53.330;11.498;2022-09-03T05:21:09;1.50;;;1.17;;
3523;SDS011;1776;53.330;11.498;2022-09-03T05:23:37;3.10;;;1.50;;
3523;SDS011;1776;53.330;11.498;2022-09-03T05:26:05;2.23;;;1.27;;
3523;SDS011;1776;53.330;11.498;2022-09-03T05:28:33;1.37;;;1.20;;
3523;SDS011;1776;53.330;11.498;2022-09-03T05:31:00;2.20;;;1.40;;
3523;SDS011;1776;53.330;11.498;2022-09-03T05:33:27;1.20;;;1.10;;
3523;SDS011;1776;53.330;11.498;2022-09-03T05:36:03;2.80;;;1.40;;
3523;SDS011;1776;53.330;11.498;2022-09-03T05:38:30;3.73;;;1.10;;
3523;SDS011;1776;53.330;11.498;2022-09-03T05:40:59;1.40;;;1.23;;
3523;SDS011;1776;53.330;11.498;2022-09-03T05:43:26;2.00;;;1.50;;
3523;SDS011;1776;53.330;11.498;2022-09-03T05:45:56;2.40;;;1.03;;
3523;SDS011;1776;53.330;11.498;2022-09-03T05:48:22;1.30;;;1.13;;
3523;SDS011;1776;53.330;11.498;2022-09-03T05:50:48;2.00;;;1.17;;
3523;SDS011;1776;53.330;11.498;2022-09-03T05:53:13;1.50;;;1.13;;
3523;SDS011;1776;53.330;11.498;2022-09-03T05:55:38;1.50;;;0.90;;
3523;SDS011;1776;53.330;11.498;2022-09-03T05:58:04;2.60;;;1.07;;
3523;SDS011;1776;53.330;11.498;2022-09-03T06:00:29;3.40;;;1.47;;
3523;SDS011;1776;53.330;11.498;2022-09-03T06:02:54;1.83;;;1.20;;
3523;SDS011;1776;53.330;11.498;2022-09-03T06:05:19;2.20;;;1.63;;
3523;SDS011;1776;53.330;11.498;2022-09-03T06:07:45;1.20;;;1.07;;
3523;SDS011;1776;53.330;11.498;2022-09-03T06:10:13;2.37;;;1.53;;
3523;SDS011;1776;53.330;11.498;2022-09-03T06:12:41;3.07;;;1.33;;
3523;SDS011;1776;53.330;11.498;2022-09-03T06:15:09;2.70;;;1.27;;
3523;SDS011;1776;53.330;11.498;2022-09-03T06:17:36;2.23;;;1.80;;
3523;SDS011;1776;53.330;11.498;2022-09-03T06:20:02;1.20;;;0.90;;
3523;SDS011;1776;53.330;11.498;2022-09-03T06:22:27;1.40;;;1.07;;
3523;SDS011;1776;53.330;11.498;2022-09-03T06:24:55;1.70;;;1.37;;
3523;SDS011;1776;53.330;11.498;2022-09-03T06:27:20;3.67;;;1.43;;
3523;SDS011;1776;53.330;11.498;2022-09-03T06:29:45;1.83;;;1.13;;
3523;SDS011;1776;53.330;11.498;2022-09-03T06:32:11;1.63;;;1.53;;
3523;SDS011;1776;53.330;11.498;2022-09-03T06:34:36;3.00;;;1.40;;
3523;SDS011;1776;53.330;11.498;2022-09-03T06:37:01;3.37;;;1.60;;
3523;SDS011;1776;53.330;11.498;2022-09-03T06:39:26;1.67;;;1.20;;
3523;SDS011;1776;53.330;11.498;2022-09-03T06:41:52;1.50;;;1.30;;
3523;SDS011;1776;53.330;11.498;2022-09-03T06:44:17;1.73;;;1.20;;
3523;SDS011;1776;53.330;11.498;2022-09-03T06:46:42;1.83;;;1.30;;
3523;SDS011;1776;53.330;11.498;2022-09-03T06:49:08;3.53;;;1.40;;
3523;SDS011;1776;53.330;11.498;2022-09-03T06:51:35;1.90;;;1.40;;
3523;SDS011;1776;53.330;11.498;2022-09-03T06:54:02;3.50;;;1.07;;
3523;SDS011;1776;53.330;11.498;2022-09-03T06:56:32;2.47;;;1.10;;
3523;SDS011;1776;53.330;11.498;2022-09-03T06:59:02;1.63;;;1.40;;
3523;SDS011;1776;53.330;11.498;2022-09-03T07:01:29;4.33;;;1.20;;
3523;SDS011;1776;53.330;11.498;2022-09-03T07:03:57;4.50;;;1.53;;
3523;SDS011;1776;53.330;11.498;2022-09-03T07:06:25;2.40;;;1.53;;
3523;SDS011;1776;53.330;11.498;2022-09-03T07:08:52;1.40;;;1.20;;
3523;SDS011;1776;53.330;11.498;2022-09-03T07:11:19;2.70;;;1.30;;
3523;SDS011;1776;53.330;11.498;2022-09-03T07:13:47;1.63;;;1.30;;
3523;SDS011;1776;53.330;11.498;2022-09-03T07:16:15;1.93;;;1.17;;
3523;SDS011;1776;53.330;11.498;2022-09-03T07:18:41;1.60;;;1.50;;
3523;SDS011;1776;53.330;11.498;2022-09-03T07:21:11;6.20;;;1.20;;
3523;SDS011;1776;53.330;11.498;2022-09-03T07:23:39;2.13;;;1.40;;
3523;SDS011;1776;53.330;11.498;2022-09-03T07:26:05;1.87;;;1.40;;
3523;SDS011;1776;53.330;11.498;2022-09-03T07:28:36;2.17;;;1.30;;
3523;SDS011;1776;53.330;11.498;2022-09-03T07:31:10;1.57;;;1.27;;
3523;SDS011;1776;53.330;11.498;2022-09-03T07:33:40;6.60;;;1.70;;
3523;SDS011;1776;53.330;11.498;2022-09-03T07:36:07;1.93;;;1.57;;
3523;SDS011;1776;53.330;11.498;2022-09-03T07:38:34;2.50;;;1.53;;
3523;SDS011;1776;53.330;11.498;2022-09-03T07:41:01;4.30;;;1.83;;
3523;SDS011;1776;53.330;11.498;2022-09-03T07:43:32;2.93;;;1.40;;
3523;SDS011;1776;53.330;11.498;2022-09-03T07:46:04;1.83;;;1.20;;
3523;SDS011;1776;53.330;11.498;2022-09-03T07:48:30;2.93;;;1.30;;
3523;SDS011;1776;53.330;11.498;2022-09-03T07:50:57;1.70;;;1.60;;
3523;SDS011;1776;53.330;11.498;2022-09-03T07:53:25;3.10;;;1.90;;
3523;SDS011;1776;53.330;11.498;2022-09-03T07:55:50;3.30;;;1.20;;
3523;SDS011;1776;53.330;11.498;2022-09-03T07:58:16;5.60;;;1.57;;
3523;SDS011;1776;53.330;11.498;2022-09-03T08:00:41;1.30;;;1.20;;
3523;SDS011;1776;53.330;11.498;2022-09-03T08:03:07;3.00;;;1.70;;
3523;SDS011;1776;53.330;11.498;2022-09-03T08:05:33;2.07;;;1.20;;
3523;SDS011;1776;53.330;11.498;2022-09-03T08:08:00;4.47;;;1.40;;
3523;SDS011;1776;53.330;11.498;2022-09-03T08:10:29;1.40;;;1.20;;
3523;SDS011;1776;53.330;11.498;2022-09-03T08:12:58;2.10;;;1.73;;
3523;SDS011;1776;53.330;11.498;2022-09-03T08:15:24;2.47;;;1.23;;
3523;SDS011;1776;53.330;11.498;2022-09-03T08:17:49;2.10;;;1.23;;
3523;SDS011;1776;53.330;11.498;2022-09-03T08:20:15;1.73;;;1.50;;
3523;SDS011;1776;53.330;11.498;2022-09-03T08:22:40;2.30;;;1.33;;
3523;SDS011;1776;53.330;11.498;2022-09-03T08:25:06;2.70;;;1.60;;
3523;SDS011;1776;53.330;11.498;2022-09-03T08:27:31;3.30;;;1.27;;
3523;SDS011;1776;53.330;11.498;2022-09-03T08:29:57;3.37;;;1.20;;
3523;SDS011;1776;53.330;11.498;2022-09-03T08:32:22;1.57;;;1.47;;
3523;SDS011;1776;53.330;11.498;2022-09-03T08:34:47;4.53;;;1.60;;
3523;SDS011;1776;53.330;11.498;2022-09-03T08:37:14;3.27;;;1.30;;
3523;SDS011;1776;53.330;11.498;2022-09-03T08:39:39;2.63;;;1.40;;
3523;SDS011;1776;53.330;11.498;2022-09-03T08:42:20;1.67;;;1.30;;
3523;SDS011;1776;53.330;11.498;2022-09-03T08:47:22;1.63;;;1.33;;
3523;SDS011;1776;53.330;11.498;2022-09-03T08:57:48;2.70;;;1.70;;
3523;SDS011;1776;53.330;11.498;2022-09-03T09:00:17;2.13;;;1.30;;
3523;SDS011;1776;53.330;11.498;2022-09-03T09:02:46;5.37;;;1.43;;
3523;SDS011;1776;53.330;11.498;2022-09-03T09:05:37;2.10;;;1.40;;
3523;SDS011;1776;53.330;11.498;2022-09-03T09:08:18;6.43;;;1.80;;
3523;SDS011;1776;53.330;11.498;2022-09-03T09:10:56;3.07;;;1.20;;
3523;SDS011;1776;53.330;11.498;2022-09-03T09:22:00;1.53;;;1.07;;
3523;SDS011;1776;53.330;11.498;2022-09-03T09:24:28;1.80;;;1.27;;
3523;SDS011;1776;53.330;11.498;2022-09-03T09:27:03;1.43;;;1.10;;
3523;SDS011;1776;53.330;11.498;2022-09-03T09:29:31;1.40;;;1.30;;
3523;SDS011;1776;53.330;11.498;2022-09-03T09:31:58;1.83;;;1.30;;
3523;SDS011;1776;53.330;11.498;2022-09-03T09:34:24;2.10;;;1.20;;
3523;SDS011;1776;53.330;11.498;2022-09-03T09:36:50;4.17;;;1.40;;
3523;SDS011;1776;53.330;11.498;2022-09-03T09:39:17;2.30;;;1.27;;
3523;SDS011;1776;53.330;11.498;2022-09-03T09:41:43;1.73;;;1.20;;
3523;SDS011;1776;53.330;11.498;2022-09-03T09:44:23;6.33;;;1.10;;
3523;SDS011;1776;53.330;11.498;2022-09-03T09:46:50;1.83;;;1.40;;
3523;SDS011;1776;53.330;11.498;2022-09-03T09:49:35;3.73;;;1.30;;
3523;SDS011;1776;53.330;11.498;2022-09-03T09:52:09;5.33;;;1.73;;
3523;SDS011;1776;53.330;11.498;2022-09-03T09:54:36;2.77;;;1.40;;
3523;SDS011;1776;53.330;11.498;2022-09-03T09:57:06;1.60;;;1.10;;
3523;SDS011;1776;53.330;11.498;2022-09-03T09:59:38;2.20;;;1.20;;
3523;SDS011;1776;53.330;11.498;2022-09-03T10:04:35;1.47;;;1.27;;
3523;SDS011;1776;53.330;11.498;2022-09-03T10:09:58;4.50;;;1.37;;
3523;SDS011;1776;53.330;11.498;2022-09-03T10:12:27;1.50;;;1.27;;
3523;SDS011;1776;53.330;11.498;2022-09-03T10:14:56;3.67;;;1.60;;
3523;SDS011;1776;53.330;11.498;2022-09-03T10:17:35;2.73;;;1.27;;
3523;SDS011;1776;53.330;11.498;2022-09-03T10:20:10;1.33;;;1.03;;
3523;SDS011;1776;53.330;11.498;2022-09-03T10:22:53;1.10;;;1.00;;
3523;SDS011;1776;53.330;11.498;2022-09-03T10:25:52;2.13;;;1.60;;
3523;SDS011;1776;53.330;11.498;2022-09-03T10:28:37;3.30;;;1.37;;
3523;SDS011;1776;53.330;11.498;2022-09-03T10:34:17;2.37;;;1.13;;
3523;SDS011;1776;53.330;11.498;2022-09-03T10:36:52;1.43;;;0.90;;
3523;SDS011;1776;53.330;11.498;2022-09-03T10:39:30;4.03;;;1.00;;
3523;SDS011;1776;53.330;11.498;2022-09-03T10:42:22;3.03;;;1.03;;
3523;SDS011;1776;53.330;11.498;2022-09-03T10:45:23;1.67;;;1.10;;
3523;SDS011;1776;53.330;11.498;2022-09-03T10:48:13;2.50;;;1.00;;
3523;SDS011;1776;53.330;11.498;2022-09-03T10:50:58;1.20;;;0.80;;
3523;SDS011;1776;53.330;11.498;2022-09-03T10:56:16;1.17;;;1.00;;
3523;SDS011;1776;53.330;11.498;2022-09-03T11:06:59;1.90;;;0.90;;
3523;SDS011;1776;53.330;11.498;2022-09-03T11:09:30;1.57;;;1.30;;
3523;SDS011;1776;53.330;11.498;2022-09-03T11:12:00;1.40;;;1.30;;
3523;SDS011;1776;53.330;11.498;2022-09-03T11:14:46;2.43;;;1.20;;
3523;SDS011;1776;53.330;11.498;2022-09-03T11:17:21;1.00;;;0.90;;
3523;SDS011;1776;53.330;11.498;2022-09-03T11:19:52;2.23;;;1.20;;
3523;SDS011;1776;53.330;11.498;2022-09-03T11:22:27;1.10;;;1.00;;
3523;SDS011;1776;53.330;11.498;2022-09-03T11:24:55;3.60;;;1.40;;
3523;SDS011;1776;53.330;11.498;2022-09-03T11:32:33;1.00;;;0.90;;
3523;SDS011;1776;53.330;11.498;2022-09-03T11:35:15;2.13;;;1.10;;
3523;SDS011;1776;53.330;11.498;2022-09-03T11:38:18;1.20;;;1.10;;
3523;SDS011;1776;53.330;11.498;2022-09-03T11:40:42;3.17;;;1.23;;
3523;SDS011;1776;53.330;11.498;2022-09-03T11:46:00;2.93;;;1.03;;
3523;SDS011;1776;53.330;11.498;2022-09-03T11:48:38;17.87;;;4.80;;
3523;SDS011;1776;53.330;11.498;2022-09-03T11:53:55;32.50;;;6.87;;
3523;SDS011;1776;53.330;11.498;2022-09-03T11:56:23;19.43;;;3.77;;
3523;SDS011;1776;53.330;11.498;2022-09-03T12:01:57;1.97;;;1.30;;
3523;SDS011;1776;53.330;11.498;2022-09-03T12:07:33;1.13;;;1.03;;
3523;SDS011;1776;53.330;11.498;2022-09-03T12:18:21;1.83;;;1.30;;
3523;SDS011;1776;53.330;11.498;2022-09-03T12:23:27;2.60;;;1.00;;
3523;SDS011;1776;53.330;11.498;2022-09-03T12:26:00;6.63;;;1.40;;
3523;SDS011;1776;53.330;11.498;2022-09-03T12:28:29;2.70;;;1.00;;
3523;SDS011;1776;53.330;11.498;2022-09-03T12:31:04;1.57;;;0.90;;
3523;SDS011;1776;53.330;11.498;2022-09-03T12:33:52;1.67;;;0.93;;
3523;SDS011;1776;53.330;11.498;2022-09-03T12:36:34;1.43;;;0.90;;
3523;SDS011;1776;53.330;11.498;2022-09-03T12:39:09;3.03;;;1.13;;
3523;SDS011;1776;53.330;11.498;2022-09-03T12:41:50;1.03;;;0.93;;
3523;SDS011;1776;53.330;11.498;2022-09-03T12:44:24;3.07;;;1.13;;
3523;SDS011;1776;53.330;11.498;2022-09-03T12:47:02;1.33;;;0.80;;
3523;SDS011;1776;53.330;11.498;2022-09-03T12:49:49;1.63;;;1.10;;
3523;SDS011;1776;53.330;11.498;2022-09-03T12:52:28;1.50;;;1.00;;
3523;SDS011;1776;53.330;11.498;2022-09-03T12:57:59;5.00;;;1.07;;
3523;SDS011;1776;53.330;11.498;2022-09-03T13:00:30;1.80;;;0.90;;
3523;SDS011;1776;53.330;11.498;2022-09-03T13:05:31;1.30;;;1.00;;
3523;SDS011;1776;53.330;11.498;2022-09-03T13:08:00;2.13;;;0.97;;
3523;SDS011;1776;53.330;11.498;2022-09-03T13:10:33;1.23;;;1.13;;
3523;SDS011;1776;53.330;11.498;2022-09-03T13:13:35;1.20;;;1.10;;
3523;SDS011;1776;53.330;11.498;2022-09-03T13:24:06;1.30;;;1.10;;
3523;SDS011;1776;53.330;11.498;2022-09-03T13:29:39;1.40;;;0.93;;
3523;SDS011;1776;53.330;11.498;2022-09-03T13:41:15;1.73;;;1.10;;
3523;SDS011;1776;53.330;11.498;2022-09-03T13:46:57;1.33;;;0.90;;
3523;SDS011;1776;53.330;11.498;2022-09-03T13:49:38;1.50;;;1.07;;
3523;SDS011;1776;53.330;11.498;2022-09-03T13:52:29;4.30;;;1.00;;
3523;SDS011;1776;53.330;11.498;2022-09-03T13:55:01;1.23;;;1.00;;
3523;SDS011;1776;53.330;11.498;2022-09-03T13:57:44;1.63;;;1.00;;
3523;SDS011;1776;53.330;11.498;2022-09-03T14:00:21;1.77;;;1.20;;
3523;SDS011;1776;53.330;11.498;2022-09-03T14:02:54;1.27;;;1.13;;
3523;SDS011;1776;53.330;11.498;2022-09-03T14:07:57;1.80;;;1.43;;
3523;SDS011;1776;53.330;11.498;2022-09-03T14:16:23;6.50;;;1.00;;
3523;SDS011;1776;53.330;11.498;2022-09-03T14:24:48;1.47;;;0.97;;
3523;SDS011;1776;53.330;11.498;2022-09-03T14:27:25;1.87;;;1.33;;
3523;SDS011;1776;53.330;11.498;2022-09-03T14:29:57;1.30;;;1.20;;
3523;SDS011;1776;53.330;11.498;2022-09-03T14:40:52;1.97;;;1.23;;
3523;SDS011;1776;53.330;11.498;2022-09-03T14:49:05;1.33;;;1.10;;
3523;SDS011;1776;53.330;11.498;2022-09-03T14:57:30;1.20;;;1.10;;
3523;SDS011;1776;53.330;11.498;2022-09-03T15:00:13;3.80;;;1.40;;
3523;SDS011;1776;53.330;11.498;2022-09-03T15:10:49;1.90;;;1.60;;
3523;SDS011;1776;53.330;11.498;2022-09-03T15:13:23;2.43;;;2.17;;
3523;SDS011;1776;53.330;11.498;2022-09-03T15:21:24;2.00;;;1.10;;
3523;SDS011;1776;53.330;11.498;2022-09-03T15:24:12;2.30;;;1.40;;
3523;SDS011;1776;53.330;11.498;2022-09-03T15:30:14;4.60;;;2.83;;
3523;SDS011;1776;53.330;11.498;2022-09-03T15:35:18;3.53;;;2.57;;
3523;SDS011;1776;53.330;11.498;2022-09-03T15:37:53;2.50;;;2.30;;
3523;SDS011;1776;53.330;11.498;2022-09-03T15:40:27;1.83;;;1.70;;
3523;SDS011;1776;53.330;11.498;2022-09-03T15:42:57;5.83;;;2.27;;
3523;SDS011;1776;53.330;11.498;2022-09-03T15:45:45;8.40;;;1.40;;
3523;SDS011;1776;53.330;11.498;2022-09-03T15:53:51;1.97;;;1.43;;
3523;SDS011;1776;53.330;11.498;2022-09-03T15:56:33;4.37;;;1.23;;
3523;SDS011;1776;53.330;11.498;2022-09-03T15:59:06;2.10;;;1.73;;
3523;SDS011;1776;53.330;11.498;2022-09-03T16:02:05;5.00;;;1.70;;
3523;SDS011;1776;53.330;11.498;2022-09-03T16:07:25;2.50;;;1.30;;
3523;SDS011;1776;53.330;11.498;2022-09-03T16:10:16;1.30;;;1.10;;
3523;SDS011;1776;53.330;11.498;2022-09-03T16:13:08;12.13;;;1.77;;
3523;SDS011;1776;53.330;11.498;2022-09-03T16:15:48;3.03;;;1.87;;
3523;SDS011;1776;53.330;11.498;2022-09-03T16:18:23;2.77;;;1.40;;
3523;SDS011;1776;53.330;11.498;2022-09-03T16:21:02;2.63;;;1.27;;
3523;SDS011;1776;53.330;11.498;2022-09-03T16:23:41;1.50;;;1.40;;
3523;SDS011;1776;53.330;11.498;2022-09-03T16:26:21;3.37;;;1.10;;
3523;SDS011;1776;53.330;11.498;2022-09-03T16:29:05;1.30;;;1.20;;
3523;SDS011;1776;53.330;11.498;2022-09-03T16:34:25;2.70;;;1.67;;
3523;SDS011;1776;53.330;11.498;2022-09-03T16:39:47;1.40;;;1.30;;
3523;SDS011;1776;53.330;11.498;2022-09-03T16:42:30;1.30;;;1.20;;
3523;SDS011;1776;53.330;11.498;2022-09-03T16:48:35;1.37;;;1.17;;
3523;SDS011;1776;53.330;11.498;2022-09-03T16:51:32;1.50;;;1.40;;
3523;SDS011;1776;53.330;11.498;2022-09-03T16:54:18;2.40;;;1.03;;
3523;SDS011;1776;53.330;11.498;2022-09-03T17:02:39;1.67;;;1.50;;
3523;SDS011;1776;53.330;11.498;2022-09-03T17:05:13;3.47;;;1.40;;
3523;SDS011;1776;53.330;11.498;2022-09-03T17:16:23;2.20;;;1.60;;
3523;SDS011;1776;53.330;11.498;2022-09-03T17:22:09;3.20;;;2.10;;
3523;SDS011;1776;53.330;11.498;2022-09-03T17:24:58;2.83;;;2.07;;
3523;SDS011;1776;53.330;11.498;2022-09-03T17:27:31;7.60;;;2.50;;
3523;SDS011;1776;53.330;11.498;2022-09-03T17:38:17;5.67;;;2.17;;
3523;SDS011;1776;53.330;11.498;2022-09-03T17:41:18;2.50;;;1.77;;
3523;SDS011;1776;53.330;11.498;2022-09-03T17:49:28;3.07;;;2.10;;
3523;SDS011;1776;53.330;11.498;2022-09-03T17:52:02;1.50;;;1.40;;
3523;SDS011;1776;53.330;11.498;2022-09-03T17:54:37;2.30;;;1.73;;
3523;SDS011;1776;53.330;11.498;2022-09-03T17:57:17;1.67;;;1.20;;
3523;SDS011;1776;53.330;11.498;2022-09-03T18:05:23;1.57;;;1.47;;
3523;SDS011;1776;53.330;11.498;2022-09-03T18:15:47;4.40;;;1.17;;
3523;SDS011;1776;53.330;11.498;2022-09-03T18:18:23;1.27;;;1.10;;
3523;SDS011;1776;53.330;11.498;2022-09-03T18:20:53;4.20;;;1.20;;
3523;SDS011;1776;53.330;11.498;2022-09-03T18:23:49;1.70;;;1.20;;
3523;SDS011;1776;53.330;11.498;2022-09-03T18:26:48;1.27;;;1.17;;
3523;SDS011;1776;53.330;11.498;2022-09-03T18:29:40;2.13;;;1.43;;
3523;SDS011;1776;53.330;11.498;2022-09-03T18:32:45;1.37;;;1.20;;
3523;SDS011;1776;53.330;11.498;2022-09-03T18:35:30;4.70;;;1.83;;
3523;SDS011;1776;53.330;11.498;2022-09-03T18:38:15;6.70;;;1.67;;
3523;SDS011;1776;53.330;11.498;2022-09-03T18:41:13;1.90;;;1.20;;
3523;SDS011;1776;53.330;11.498;2022-09-03T18:53:17;2.73;;;1.90;;
3523;SDS011;1776;53.330;11.498;2022-09-03T18:56:25;4.30;;;1.87;;
3523;SDS011;1776;53.330;11.498;2022-09-03T19:14:38;2.20;;;0.93;;
3523;SDS011;1776;53.330;11.498;2022-09-03T19:17:41;1.80;;;1.23;;
3523;SDS011;1776;53.330;11.498;2022-09-03T19:20:30;1.47;;;1.20;;
3523;SDS011;1776;53.330;11.498;2022-09-03T19:23:17;2.30;;;1.40;;
3523;SDS011;1776;53.330;11.498;2022-09-03T19:26:24;1.33;;;1.23;;
3523;SDS011;1776;53.330;11.498;2022-09-03T19:29:16;5.23;;;1.20;;
3523;SDS011;1776;53.330;11.498;2022-09-03T19:32:23;1.53;;;1.40;;
3523;SDS011;1776;53.330;11.498;2022-09-03T19:35:22;3.50;;;1.57;;
3523;SDS011;1776;53.330;11.498;2022-09-03T19:38:17;3.00;;;1.70;;
3523;SDS011;1776;53.330;11.498;2022-09-03T19:47:31;2.30;;;1.53;;
3523;SDS011;1776;53.330;11.498;2022-09-03T19:50:21;3.93;;;1.63;;
3523;SDS011;1776;53.330;11.498;2022-09-03T19:53:10;1.90;;;1.43;;
3523;SDS011;1776;53.330;11.498;2022-09-03T19:55:58;6.40;;;1.70;;
3523;SDS011;1776;53.330;11.498;2022-09-03T19:58:47;3.00;;;1.57;;
3523;SDS011;1776;53.330;11.498;2022-09-03T20:01:35;5.87;;;1.90;;
3523;SDS011;1776;53.330;11.498;2022-09-03T20:04:34;3.23;;;1.50;;
3523;SDS011;1776;53.330;11.498;2022-09-03T20:07:21;1.47;;;1.37;;
3523;SDS011;1776;53.330;11.498;2022-09-03T20:10:07;2.40;;;1.53;;
3523;SDS011;1776;53.330;11.498;2022-09-03T20:12:49;1.20;;;1.00;;
3523;SDS011;1776;53.330;11.498;2022-09-03T20:15:19;1.33;;;1.20;;
3523;SDS011;1776;53.330;11.498;2022-09-03T20:20:18;1.70;;;1.10;;
3523;SDS011;1776;53.330;11.498;2022-09-03T20:25:48;1.43;;;1.33;;
3523;SDS011;1776;53.330;11.498;2022-09-03T20:31:15;1.00;;;0.90;;
3523;SDS011;1776;53.330;11.498;2022-09-03T20:33:56;1.33;;;1.20;;
3523;SDS011;1776;53.330;11.498;2022-09-03T20:39:11;1.57;;;0.90;;
3523;SDS011;1776;53.330;11.498;2022-09-03T20:44:27;1.30;;;0.90;;